sensor_id;sensor_type;location;lat;lon;timestamp;P1;durP1;ratioP1;P2;durP2;ratioP2
50773;SDS011;36745;48.544;8.918;2023-07-31T00:02:19;10.00;;;2.95;;
50773;SDS011;36745;48.544;8.918;2023-07-31T00:05:39;5.68;;;2.85;;
50773;SDS011;36745;48.544;8.918;2023-07-31T00:08:59;8.73;;;3.85;;
50773;SDS011;36745;48.544;8.918;2023-07-31T00:12:19;8.13;;;3.38;;
50773;SDS011;36745;48.544;8.918;2023-07-31T00:15:39;5.78;;;2.92;;
50773;SDS011;36745;48.544;8.918;2023-07-31T00:18:59;8.68;;;3.05;;
50773;SDS011;36745;48.544;8.918;2023-07-31T00:22:19;7.15;;;3.28;;
50773;SDS011;36745;48.544;8.918;2023-07-31T00:25:39;10.00;;;3.47;;
50773;SDS011;36745;48.544;8.918;2023-07-31T00:28:59;9.18;;;3.15;;
50773;SDS011;36745;48.544;8.918;2023-07-31T00:32:19;8.65;;;3.25;;
50773;SDS011;36745;48.544;8.918;2023-07-31T00:35:38;7.07;;;2.83;;
50773;SDS011;36745;48.544;8.918;2023-07-31T00:38:58;11.55;;;3.47;;
50773;SDS011;36745;48.544;8.918;2023-07-31T00:42:18;9.95;;;3.83;;
50773;SDS011;36745;48.544;8.918;2023-07-31T00:45:38;10.68;;;3.60;;
50773;SDS011;36745;48.544;8.918;2023-07-31T00:48:58;11.00;;;4.03;;
50773;SDS011;36745;48.544;8.918;2023-07-31T00:52:18;10.77;;;3.55;;
50773;SDS011;36745;48.544;8.918;2023-07-31T00:55:38;14.93;;;4.30;;
50773;SDS011;36745;48.544;8.918;2023-07-31T00:58:58;8.18;;;2.97;;
50773;SDS011;36745;48.544;8.918;2023-07-31T01:02:18;6.05;;;2.90;;
50773;SDS011;36745;48.544;8.918;2023-07-31T01:12:41;13.68;;;3.88;;
50773;SDS011;36745;48.544;8.918;2023-07-31T01:16:04;8.23;;;3.65;;
50773;SDS011;36745;48.544;8.918;2023-07-31T01:19:24;17.15;;;4.38;;
50773;SDS011;36745;48.544;8.918;2023-07-31T01:23:15;11.35;;;3.42;;
50773;SDS011;36745;48.544;8.918;2023-07-31T01:30:24;12.43;;;3.70;;
50773;SDS011;36745;48.544;8.918;2023-07-31T01:33:47;8.48;;;3.40;;
50773;SDS011;36745;48.544;8.918;2023-07-31T01:37:09;8.70;;;3.30;;
50773;SDS011;36745;48.544;8.918;2023-07-31T01:40:28;9.18;;;3.40;;
50773;SDS011;36745;48.544;8.918;2023-07-31T01:43:48;12.38;;;3.88;;
50773;SDS011;36745;48.544;8.918;2023-07-31T01:47:08;9.77;;;3.92;;
50773;SDS011;36745;48.544;8.918;2023-07-31T01:50:28;11.65;;;3.90;;
50773;SDS011;36745;48.544;8.918;2023-07-31T01:53:48;13.35;;;4.20;;
50773;SDS011;36745;48.544;8.918;2023-07-31T01:57:07;10.35;;;4.05;;
50773;SDS011;36745;48.544;8.918;2023-07-31T02:00:27;12.65;;;4.53;;
50773;SDS011;36745;48.544;8.918;2023-07-31T02:03:47;8.98;;;3.53;;
50773;SDS011;36745;48.544;8.918;2023-07-31T02:07:07;15.15;;;5.15;;
50773;SDS011;36745;48.544;8.918;2023-07-31T02:10:26;4.70;;;2.90;;
50773;SDS011;36745;48.544;8.918;2023-07-31T02:13:46;8.52;;;3.03;;
50773;SDS011;36745;48.544;8.918;2023-07-31T02:17:06;7.70;;;2.92;;
50773;SDS011;36745;48.544;8.918;2023-07-31T02:20:26;8.77;;;3.38;;
50773;SDS011;36745;48.544;8.918;2023-07-31T02:23:45;11.10;;;3.80;;
50773;SDS011;36745;48.544;8.918;2023-07-31T02:27:05;13.02;;;4.25;;
50773;SDS011;36745;48.544;8.918;2023-07-31T02:30:25;8.63;;;3.40;;
50773;SDS011;36745;48.544;8.918;2023-07-31T02:33:45;7.55;;;3.30;;
50773;SDS011;36745;48.544;8.918;2023-07-31T02:37:05;11.38;;;3.10;;
50773;SDS011;36745;48.544;8.918;2023-07-31T02:40:24;9.43;;;3.58;;
50773;SDS011;36745;48.544;8.918;2023-07-31T02:43:44;17.35;;;4.25;;
50773;SDS011;36745;48.544;8.918;2023-07-31T02:47:04;9.15;;;3.58;;
50773;SDS011;36745;48.544;8.918;2023-07-31T02:50:23;12.75;;;3.80;;
50773;SDS011;36745;48.544;8.918;2023-07-31T02:53:43;14.90;;;4.28;;
50773;SDS011;36745;48.544;8.918;2023-07-31T02:57:03;8.75;;;3.60;;
50773;SDS011;36745;48.544;8.918;2023-07-31T03:00:23;8.27;;;3.42;;
50773;SDS011;36745;48.544;8.918;2023-07-31T03:03:43;8.60;;;3.38;;
50773;SDS011;36745;48.544;8.918;2023-07-31T03:07:03;7.93;;;3.17;;
50773;SDS011;36745;48.544;8.918;2023-07-31T03:10:23;6.32;;;3.10;;
50773;SDS011;36745;48.544;8.918;2023-07-31T03:13:43;8.65;;;3.20;;
50773;SDS011;36745;48.544;8.918;2023-07-31T03:17:03;9.45;;;3.22;;
50773;SDS011;36745;48.544;8.918;2023-07-31T03:20:22;8.32;;;3.83;;
50773;SDS011;36745;48.544;8.918;2023-07-31T03:23:42;13.25;;;3.42;;
50773;SDS011;36745;48.544;8.918;2023-07-31T03:27:03;7.70;;;2.92;;
50773;SDS011;36745;48.544;8.918;2023-07-31T03:30:22;6.32;;;3.10;;
50773;SDS011;36745;48.544;8.918;2023-07-31T03:33:42;7.13;;;3.38;;
50773;SDS011;36745;48.544;8.918;2023-07-31T03:37:02;13.45;;;3.75;;
50773;SDS011;36745;48.544;8.918;2023-07-31T03:40:24;34.05;;;6.50;;
50773;SDS011;36745;48.544;8.918;2023-07-31T03:43:46;35.28;;;6.75;;
50773;SDS011;36745;48.544;8.918;2023-07-31T03:47:10;23.48;;;5.03;;
50773;SDS011;36745;48.544;8.918;2023-07-31T03:50:30;15.63;;;4.60;;
50773;SDS011;36745;48.544;8.918;2023-07-31T03:53:50;11.88;;;3.95;;
50773;SDS011;36745;48.544;8.918;2023-07-31T03:57:10;17.67;;;4.70;;
50773;SDS011;36745;48.544;8.918;2023-07-31T04:00:30;17.95;;;4.03;;
50773;SDS011;36745;48.544;8.918;2023-07-31T04:03:50;8.35;;;3.25;;
50773;SDS011;36745;48.544;8.918;2023-07-31T04:07:10;16.92;;;4.47;;
50773;SDS011;36745;48.544;8.918;2023-07-31T04:10:29;18.90;;;4.82;;
50773;SDS011;36745;48.544;8.918;2023-07-31T04:13:52;19.15;;;4.55;;
50773;SDS011;36745;48.544;8.918;2023-07-31T04:17:11;9.27;;;4.70;;
50773;SDS011;36745;48.544;8.918;2023-07-31T04:20:31;9.35;;;4.70;;
50773;SDS011;36745;48.544;8.918;2023-07-31T04:23:51;15.00;;;4.60;;
50773;SDS011;36745;48.544;8.918;2023-07-31T04:27:15;20.10;;;5.13;;
50773;SDS011;36745;48.544;8.918;2023-07-31T04:30:34;14.52;;;4.95;;
50773;SDS011;36745;48.544;8.918;2023-07-31T04:33:55;52.53;;;12.23;;
50773;SDS011;36745;48.544;8.918;2023-07-31T04:37:15;99.75;;;18.13;;
50773;SDS011;36745;48.544;8.918;2023-07-31T04:40:35;81.80;;;15.02;;
50773;SDS011;36745;48.544;8.918;2023-07-31T04:43:55;84.63;;;17.38;;
50773;SDS011;36745;48.544;8.918;2023-07-31T04:47:15;78.90;;;17.52;;
50773;SDS011;36745;48.544;8.918;2023-07-31T04:50:34;76.88;;;20.77;;
50773;SDS011;36745;48.544;8.918;2023-07-31T04:53:54;58.63;;;16.30;;
50773;SDS011;36745;48.544;8.918;2023-07-31T04:57:16;52.78;;;16.60;;
50773;SDS011;36745;48.544;8.918;2023-07-31T05:00:35;35.88;;;10.25;;
50773;SDS011;36745;48.544;8.918;2023-07-31T05:03:55;30.23;;;11.18;;
50773;SDS011;36745;48.544;8.918;2023-07-31T05:07:15;48.58;;;14.15;;
50773;SDS011;36745;48.544;8.918;2023-07-31T05:10:36;43.45;;;14.75;;
50773;SDS011;36745;48.544;8.918;2023-07-31T05:13:56;49.38;;;15.70;;
50773;SDS011;36745;48.544;8.918;2023-07-31T05:17:16;49.72;;;15.82;;
50773;SDS011;36745;48.544;8.918;2023-07-31T05:20:36;44.70;;;14.25;;
50773;SDS011;36745;48.544;8.918;2023-07-31T05:23:55;35.35;;;12.32;;
50773;SDS011;36745;48.544;8.918;2023-07-31T05:27:15;23.55;;;9.82;;
50773;SDS011;36745;48.544;8.918;2023-07-31T05:30:37;17.40;;;7.18;;
50773;SDS011;36745;48.544;8.918;2023-07-31T05:33:57;15.35;;;6.75;;
50773;SDS011;36745;48.544;8.918;2023-07-31T05:37:17;15.77;;;7.30;;
50773;SDS011;36745;48.544;8.918;2023-07-31T05:40:37;13.82;;;6.75;;
50773;SDS011;36745;48.544;8.918;2023-07-31T05:43:57;11.85;;;4.00;;
50773;SDS011;36745;48.544;8.918;2023-07-31T05:47:17;14.32;;;5.57;;
50773;SDS011;36745;48.544;8.918;2023-07-31T05:50:36;6.90;;;3.08;;
50773;SDS011;36745;48.544;8.918;2023-07-31T05:53:59;3.58;;;2.60;;
50773;SDS011;36745;48.544;8.918;2023-07-31T05:57:19;7.47;;;2.92;;
50773;SDS011;36745;48.544;8.918;2023-07-31T06:00:39;5.97;;;3.03;;
50773;SDS011;36745;48.544;8.918;2023-07-31T06:04:00;5.80;;;2.70;;
50773;SDS011;36745;48.544;8.918;2023-07-31T06:07:21;5.32;;;2.88;;
50773;SDS011;36745;48.544;8.918;2023-07-31T06:10:40;12.85;;;2.78;;
50773;SDS011;36745;48.544;8.918;2023-07-31T06:14:00;9.02;;;3.20;;
50773;SDS011;36745;48.544;8.918;2023-07-31T06:17:20;6.97;;;3.00;;
50773;SDS011;36745;48.544;8.918;2023-07-31T06:20:40;5.43;;;2.60;;
50773;SDS011;36745;48.544;8.918;2023-07-31T06:24:00;4.15;;;2.95;;
50773;SDS011;36745;48.544;8.918;2023-07-31T06:27:20;4.40;;;2.58;;
50773;SDS011;36745;48.544;8.918;2023-07-31T06:30:40;8.32;;;3.67;;
50773;SDS011;36745;48.544;8.918;2023-07-31T06:33:59;8.88;;;5.32;;
50773;SDS011;36745;48.544;8.918;2023-07-31T06:37:19;5.90;;;4.40;;
50773;SDS011;36745;48.544;8.918;2023-07-31T06:40:39;10.57;;;6.22;;
50773;SDS011;36745;48.544;8.918;2023-07-31T06:43:59;5.32;;;3.92;;
50773;SDS011;36745;48.544;8.918;2023-07-31T06:47:19;8.98;;;4.47;;
50773;SDS011;36745;48.544;8.918;2023-07-31T06:50:38;7.15;;;3.05;;
50773;SDS011;36745;48.544;8.918;2023-07-31T06:53:58;5.95;;;2.92;;
50773;SDS011;36745;48.544;8.918;2023-07-31T06:57:18;4.20;;;2.50;;
50773;SDS011;36745;48.544;8.918;2023-07-31T07:00:38;6.78;;;3.42;;
50773;SDS011;36745;48.544;8.918;2023-07-31T07:03:58;7.97;;;2.53;;
50773;SDS011;36745;48.544;8.918;2023-07-31T07:07:17;6.70;;;2.70;;
50773;SDS011;36745;48.544;8.918;2023-07-31T07:10:37;4.95;;;2.53;;
50773;SDS011;36745;48.544;8.918;2023-07-31T07:13:57;5.18;;;2.55;;
50773;SDS011;36745;48.544;8.918;2023-07-31T07:17:17;8.35;;;2.50;;
50773;SDS011;36745;48.544;8.918;2023-07-31T07:20:37;4.50;;;1.92;;
50773;SDS011;36745;48.544;8.918;2023-07-31T07:23:56;8.93;;;2.33;;
50773;SDS011;36745;48.544;8.918;2023-07-31T07:27:16;6.97;;;2.33;;
50773;SDS011;36745;48.544;8.918;2023-07-31T07:30:36;6.78;;;2.30;;
50773;SDS011;36745;48.544;8.918;2023-07-31T07:33:56;7.00;;;2.35;;
50773;SDS011;36745;48.544;8.918;2023-07-31T07:41:14;4.60;;;2.13;;
50773;SDS011;36745;48.544;8.918;2023-07-31T07:44:33;5.25;;;2.22;;
50773;SDS011;36745;48.544;8.918;2023-07-31T07:47:53;5.53;;;2.38;;
50773;SDS011;36745;48.544;8.918;2023-07-31T07:51:13;5.60;;;2.30;;
50773;SDS011;36745;48.544;8.918;2023-07-31T07:54:33;6.53;;;2.53;;
50773;SDS011;36745;48.544;8.918;2023-07-31T07:57:53;6.97;;;2.50;;
50773;SDS011;36745;48.544;8.918;2023-07-31T08:01:12;5.72;;;2.25;;
50773;SDS011;36745;48.544;8.918;2023-07-31T08:04:32;5.50;;;2.40;;
50773;SDS011;36745;48.544;8.918;2023-07-31T08:07:52;7.13;;;2.30;;
50773;SDS011;36745;48.544;8.918;2023-07-31T08:11:12;7.18;;;2.63;;
50773;SDS011;36745;48.544;8.918;2023-07-31T08:14:32;6.68;;;2.65;;
50773;SDS011;36745;48.544;8.918;2023-07-31T08:17:51;5.88;;;2.17;;
50773;SDS011;36745;48.544;8.918;2023-07-31T08:21:11;6.28;;;3.08;;
50773;SDS011;36745;48.544;8.918;2023-07-31T08:24:31;5.97;;;2.05;;
50773;SDS011;36745;48.544;8.918;2023-07-31T08:27:51;5.63;;;2.22;;
50773;SDS011;36745;48.544;8.918;2023-07-31T08:31:11;3.80;;;2.03;;
50773;SDS011;36745;48.544;8.918;2023-07-31T08:34:31;8.57;;;2.47;;
50773;SDS011;36745;48.544;8.918;2023-07-31T08:37:51;6.93;;;2.50;;
50773;SDS011;36745;48.544;8.918;2023-07-31T08:41:11;5.97;;;2.38;;
50773;SDS011;36745;48.544;8.918;2023-07-31T08:44:32;5.38;;;2.55;;
50773;SDS011;36745;48.544;8.918;2023-07-31T08:47:54;4.32;;;2.42;;
50773;SDS011;36745;48.544;8.918;2023-07-31T08:51:15;4.57;;;2.38;;
50773;SDS011;36745;48.544;8.918;2023-07-31T08:54:35;4.93;;;2.20;;
50773;SDS011;36745;48.544;8.918;2023-07-31T08:57:54;8.38;;;2.92;;
50773;SDS011;36745;48.544;8.918;2023-07-31T09:01:15;7.15;;;2.35;;
50773;SDS011;36745;48.544;8.918;2023-07-31T09:04:36;4.15;;;2.35;;
50773;SDS011;36745;48.544;8.918;2023-07-31T09:07:59;6.80;;;2.77;;
50773;SDS011;36745;48.544;8.918;2023-07-31T09:11:21;9.68;;;2.50;;
50773;SDS011;36745;48.544;8.918;2023-07-31T09:14:43;6.95;;;2.30;;
50773;SDS011;36745;48.544;8.918;2023-07-31T09:18:06;6.85;;;2.72;;
50773;SDS011;36745;48.544;8.918;2023-07-31T09:21:26;5.72;;;2.53;;
50773;SDS011;36745;48.544;8.918;2023-07-31T09:24:47;5.88;;;2.78;;
50773;SDS011;36745;48.544;8.918;2023-07-31T09:28:07;4.28;;;2.42;;
50773;SDS011;36745;48.544;8.918;2023-07-31T09:31:41;7.30;;;2.88;;
50773;SDS011;36745;48.544;8.918;2023-07-31T09:38:31;8.10;;;3.08;;
50773;SDS011;36745;48.544;8.918;2023-07-31T09:41:54;8.13;;;2.92;;
50773;SDS011;36745;48.544;8.918;2023-07-31T09:45:15;5.88;;;2.90;;
50773;SDS011;36745;48.544;8.918;2023-07-31T09:48:38;7.28;;;3.30;;
50773;SDS011;36745;48.544;8.918;2023-07-31T09:51:58;11.55;;;3.63;;
50773;SDS011;36745;48.544;8.918;2023-07-31T09:55:18;8.25;;;3.00;;
50773;SDS011;36745;48.544;8.918;2023-07-31T09:58:38;6.18;;;2.72;;
50773;SDS011;36745;48.544;8.918;2023-07-31T10:01:58;8.45;;;2.65;;
50773;SDS011;36745;48.544;8.918;2023-07-31T10:05:19;8.70;;;2.97;;
50773;SDS011;36745;48.544;8.918;2023-07-31T10:08:39;6.35;;;2.80;;
50773;SDS011;36745;48.544;8.918;2023-07-31T10:12:02;5.10;;;2.30;;
50773;SDS011;36745;48.544;8.918;2023-07-31T10:15:28;5.28;;;2.80;;
50773;SDS011;36745;48.544;8.918;2023-07-31T10:18:49;5.70;;;2.72;;
50773;SDS011;36745;48.544;8.918;2023-07-31T10:22:11;8.68;;;2.75;;
50773;SDS011;36745;48.544;8.918;2023-07-31T10:25:31;6.20;;;2.50;;
50773;SDS011;36745;48.544;8.918;2023-07-31T10:28:52;4.80;;;2.42;;
50773;SDS011;36745;48.544;8.918;2023-07-31T10:32:12;4.07;;;2.45;;
50773;SDS011;36745;48.544;8.918;2023-07-31T10:35:33;4.22;;;2.35;;
50773;SDS011;36745;48.544;8.918;2023-07-31T10:38:54;6.68;;;2.67;;
50773;SDS011;36745;48.544;8.918;2023-07-31T10:42:15;5.25;;;2.60;;
50773;SDS011;36745;48.544;8.918;2023-07-31T10:45:39;6.57;;;2.75;;
50773;SDS011;36745;48.544;8.918;2023-07-31T10:49:02;5.30;;;2.40;;
50773;SDS011;36745;48.544;8.918;2023-07-31T10:52:22;5.82;;;2.80;;
50773;SDS011;36745;48.544;8.918;2023-07-31T10:55:46;6.13;;;2.70;;
50773;SDS011;36745;48.544;8.918;2023-07-31T10:59:07;5.88;;;2.83;;
50773;SDS011;36745;48.544;8.918;2023-07-31T11:02:27;9.52;;;3.53;;
50773;SDS011;36745;48.544;8.918;2023-07-31T11:09:19;8.20;;;3.38;;
50773;SDS011;36745;48.544;8.918;2023-07-31T11:12:39;3.85;;;2.78;;
50773;SDS011;36745;48.544;8.918;2023-07-31T11:16:00;5.90;;;2.50;;
50773;SDS011;36745;48.544;8.918;2023-07-31T11:19:23;5.40;;;2.80;;
50773;SDS011;36745;48.544;8.918;2023-07-31T11:22:44;5.20;;;2.80;;
50773;SDS011;36745;48.544;8.918;2023-07-31T11:26:04;4.78;;;2.40;;
50773;SDS011;36745;48.544;8.918;2023-07-31T11:29:27;9.15;;;3.00;;
50773;SDS011;36745;48.544;8.918;2023-07-31T11:32:48;7.25;;;3.38;;
50773;SDS011;36745;48.544;8.918;2023-07-31T11:36:16;9.13;;;3.05;;
50773;SDS011;36745;48.544;8.918;2023-07-31T11:39:39;5.97;;;2.90;;
50773;SDS011;36745;48.544;8.918;2023-07-31T11:43:03;8.25;;;2.72;;
50773;SDS011;36745;48.544;8.918;2023-07-31T11:46:23;6.72;;;2.85;;
50773;SDS011;36745;48.544;8.918;2023-07-31T11:49:43;6.50;;;2.97;;
50773;SDS011;36745;48.544;8.918;2023-07-31T11:53:06;6.18;;;2.78;;
50773;SDS011;36745;48.544;8.918;2023-07-31T11:56:28;9.82;;;3.00;;
50773;SDS011;36745;48.544;8.918;2023-07-31T11:59:49;5.32;;;3.25;;
50773;SDS011;36745;48.544;8.918;2023-07-31T12:03:09;7.78;;;4.03;;
50773;SDS011;36745;48.544;8.918;2023-07-31T12:06:32;14.93;;;6.20;;
50773;SDS011;36745;48.544;8.918;2023-07-31T12:09:54;15.00;;;6.38;;
50773;SDS011;36745;48.544;8.918;2023-07-31T12:13:24;6.45;;;3.25;;
50773;SDS011;36745;48.544;8.918;2023-07-31T12:16:45;8.70;;;2.90;;
50773;SDS011;36745;48.544;8.918;2023-07-31T12:20:05;5.78;;;2.88;;
50773;SDS011;36745;48.544;8.918;2023-07-31T12:23:28;7.57;;;3.13;;
50773;SDS011;36745;48.544;8.918;2023-07-31T12:26:49;6.85;;;2.83;;
50773;SDS011;36745;48.544;8.918;2023-07-31T12:30:25;7.20;;;3.20;;
50773;SDS011;36745;48.544;8.918;2023-07-31T12:33:49;7.40;;;2.88;;
50773;SDS011;36745;48.544;8.918;2023-07-31T12:37:09;5.80;;;3.10;;
50773;SDS011;36745;48.544;8.918;2023-07-31T12:40:29;6.22;;;2.97;;
50773;SDS011;36745;48.544;8.918;2023-07-31T12:43:49;4.85;;;2.60;;
50773;SDS011;36745;48.544;8.918;2023-07-31T12:47:09;6.75;;;3.08;;
50773;SDS011;36745;48.544;8.918;2023-07-31T12:50:29;4.80;;;2.55;;
50773;SDS011;36745;48.544;8.918;2023-07-31T12:53:49;7.20;;;3.20;;
50773;SDS011;36745;48.544;8.918;2023-07-31T12:57:09;6.80;;;3.03;;
50773;SDS011;36745;48.544;8.918;2023-07-31T13:00:29;5.15;;;2.65;;
50773;SDS011;36745;48.544;8.918;2023-07-31T13:03:49;7.72;;;2.97;;
50773;SDS011;36745;48.544;8.918;2023-07-31T13:07:08;5.95;;;2.97;;
50773;SDS011;36745;48.544;8.918;2023-07-31T13:10:28;5.72;;;2.47;;
50773;SDS011;36745;48.544;8.918;2023-07-31T13:13:49;6.13;;;3.33;;
50773;SDS011;36745;48.544;8.918;2023-07-31T13:17:08;5.97;;;2.47;;
50773;SDS011;36745;48.544;8.918;2023-07-31T13:20:28;4.90;;;2.55;;
50773;SDS011;36745;48.544;8.918;2023-07-31T13:23:48;7.72;;;2.88;;
50773;SDS011;36745;48.544;8.918;2023-07-31T13:27:08;7.90;;;3.17;;
50773;SDS011;36745;48.544;8.918;2023-07-31T13:30:27;5.30;;;2.83;;
50773;SDS011;36745;48.544;8.918;2023-07-31T13:33:47;5.20;;;3.08;;
50773;SDS011;36745;48.544;8.918;2023-07-31T13:37:07;11.85;;;2.97;;
50773;SDS011;36745;48.544;8.918;2023-07-31T13:40:27;6.10;;;2.80;;
50773;SDS011;36745;48.544;8.918;2023-07-31T13:43:46;4.35;;;2.70;;
50773;SDS011;36745;48.544;8.918;2023-07-31T13:47:06;5.60;;;2.63;;
50773;SDS011;36745;48.544;8.918;2023-07-31T13:50:26;4.53;;;2.42;;
50773;SDS011;36745;48.544;8.918;2023-07-31T13:53:46;7.38;;;3.42;;
50773;SDS011;36745;48.544;8.918;2023-07-31T13:57:06;6.43;;;2.72;;
50773;SDS011;36745;48.544;8.918;2023-07-31T14:00:26;5.25;;;2.75;;
50773;SDS011;36745;48.544;8.918;2023-07-31T14:03:48;7.55;;;3.42;;
50773;SDS011;36745;48.544;8.918;2023-07-31T14:07:08;5.75;;;2.90;;
50773;SDS011;36745;48.544;8.918;2023-07-31T14:10:27;5.38;;;2.80;;
50773;SDS011;36745;48.544;8.918;2023-07-31T14:13:47;5.88;;;2.97;;
50773;SDS011;36745;48.544;8.918;2023-07-31T14:17:07;5.45;;;3.17;;
50773;SDS011;36745;48.544;8.918;2023-07-31T14:20:27;5.28;;;2.97;;
50773;SDS011;36745;48.544;8.918;2023-07-31T14:23:46;6.93;;;3.08;;
50773;SDS011;36745;48.544;8.918;2023-07-31T14:27:06;5.68;;;2.95;;
50773;SDS011;36745;48.544;8.918;2023-07-31T14:30:26;6.07;;;3.03;;
50773;SDS011;36745;48.544;8.918;2023-07-31T14:33:46;6.53;;;2.90;;
50773;SDS011;36745;48.544;8.918;2023-07-31T14:37:06;5.53;;;3.10;;
50773;SDS011;36745;48.544;8.918;2023-07-31T14:40:26;8.10;;;3.05;;
50773;SDS011;36745;48.544;8.918;2023-07-31T14:43:45;7.07;;;3.05;;
50773;SDS011;36745;48.544;8.918;2023-07-31T14:47:05;6.65;;;3.25;;
50773;SDS011;36745;48.544;8.918;2023-07-31T14:50:25;4.82;;;3.05;;
50773;SDS011;36745;48.544;8.918;2023-07-31T14:53:45;7.00;;;3.40;;
50773;SDS011;36745;48.544;8.918;2023-07-31T14:57:06;5.93;;;2.75;;
50773;SDS011;36745;48.544;8.918;2023-07-31T15:00:26;6.20;;;2.95;;
50773;SDS011;36745;48.544;8.918;2023-07-31T15:03:46;6.20;;;3.05;;
50773;SDS011;36745;48.544;8.918;2023-07-31T15:07:06;4.97;;;3.00;;
50773;SDS011;36745;48.544;8.918;2023-07-31T15:10:25;4.78;;;2.97;;
50773;SDS011;36745;48.544;8.918;2023-07-31T15:13:45;6.05;;;3.33;;
50773;SDS011;36745;48.544;8.918;2023-07-31T15:17:05;7.30;;;3.50;;
50773;SDS011;36745;48.544;8.918;2023-07-31T15:20:25;5.85;;;3.30;;
50773;SDS011;36745;48.544;8.918;2023-07-31T15:23:45;5.15;;;2.85;;
50773;SDS011;36745;48.544;8.918;2023-07-31T15:27:05;8.02;;;5.07;;
50773;SDS011;36745;48.544;8.918;2023-07-31T15:30:24;6.35;;;3.08;;
50773;SDS011;36745;48.544;8.918;2023-07-31T15:33:44;6.20;;;2.90;;
50773;SDS011;36745;48.544;8.918;2023-07-31T15:37:04;6.53;;;3.65;;
50773;SDS011;36745;48.544;8.918;2023-07-31T15:40:24;5.15;;;3.10;;
50773;SDS011;36745;48.544;8.918;2023-07-31T15:43:44;8.68;;;3.17;;
50773;SDS011;36745;48.544;8.918;2023-07-31T15:47:04;4.72;;;2.75;;
50773;SDS011;36745;48.544;8.918;2023-07-31T15:50:24;6.55;;;2.90;;
50773;SDS011;36745;48.544;8.918;2023-07-31T15:53:44;6.38;;;2.95;;
50773;SDS011;36745;48.544;8.918;2023-07-31T15:57:04;5.35;;;3.30;;
50773;SDS011;36745;48.544;8.918;2023-07-31T16:00:23;5.80;;;2.85;;
50773;SDS011;36745;48.544;8.918;2023-07-31T16:03:43;5.65;;;2.50;;
50773;SDS011;36745;48.544;8.918;2023-07-31T16:07:03;5.70;;;2.70;;
50773;SDS011;36745;48.544;8.918;2023-07-31T16:10:23;5.50;;;3.03;;
50773;SDS011;36745;48.544;8.918;2023-07-31T16:13:42;5.82;;;2.92;;
50773;SDS011;36745;48.544;8.918;2023-07-31T16:17:02;4.60;;;2.50;;
50773;SDS011;36745;48.544;8.918;2023-07-31T16:20:22;6.18;;;3.28;;
50773;SDS011;36745;48.544;8.918;2023-07-31T16:23:42;5.68;;;3.08;;
50773;SDS011;36745;48.544;8.918;2023-07-31T16:27:02;8.80;;;2.90;;
50773;SDS011;36745;48.544;8.918;2023-07-31T16:30:22;6.45;;;3.40;;
50773;SDS011;36745;48.544;8.918;2023-07-31T16:33:42;8.43;;;3.40;;
50773;SDS011;36745;48.544;8.918;2023-07-31T16:37:01;8.88;;;3.60;;
50773;SDS011;36745;48.544;8.918;2023-07-31T16:40:21;7.88;;;3.05;;
50773;SDS011;36745;48.544;8.918;2023-07-31T16:43:41;8.57;;;2.88;;
50773;SDS011;36745;48.544;8.918;2023-07-31T16:47:01;6.25;;;3.03;;
50773;SDS011;36745;48.544;8.918;2023-07-31T16:50:20;7.90;;;3.00;;
50773;SDS011;36745;48.544;8.918;2023-07-31T16:53:40;4.22;;;2.80;;
50773;SDS011;36745;48.544;8.918;2023-07-31T16:57:00;5.57;;;2.75;;
50773;SDS011;36745;48.544;8.918;2023-07-31T17:00:20;6.03;;;3.38;;
50773;SDS011;36745;48.544;8.918;2023-07-31T17:03:40;7.07;;;3.30;;
50773;SDS011;36745;48.544;8.918;2023-07-31T17:07:00;3.85;;;2.72;;
50773;SDS011;36745;48.544;8.918;2023-07-31T17:10:19;5.25;;;3.15;;
50773;SDS011;36745;48.544;8.918;2023-07-31T17:13:39;7.97;;;3.50;;
50773;SDS011;36745;48.544;8.918;2023-07-31T17:16:59;5.10;;;2.92;;
50773;SDS011;36745;48.544;8.918;2023-07-31T17:20:19;6.45;;;3.28;;
50773;SDS011;36745;48.544;8.918;2023-07-31T17:23:38;7.38;;;3.55;;
50773;SDS011;36745;48.544;8.918;2023-07-31T17:26:58;6.25;;;3.40;;
50773;SDS011;36745;48.544;8.918;2023-07-31T17:30:18;7.30;;;3.53;;
50773;SDS011;36745;48.544;8.918;2023-07-31T17:33:39;7.80;;;2.97;;
50773;SDS011;36745;48.544;8.918;2023-07-31T17:36:59;7.88;;;3.00;;
50773;SDS011;36745;48.544;8.918;2023-07-31T17:40:19;10.90;;;3.92;;
50773;SDS011;36745;48.544;8.918;2023-07-31T17:43:39;10.32;;;4.07;;
50773;SDS011;36745;48.544;8.918;2023-07-31T17:46:58;7.18;;;3.70;;
50773;SDS011;36745;48.544;8.918;2023-07-31T17:50:18;8.00;;;3.47;;
50773;SDS011;36745;48.544;8.918;2023-07-31T17:53:38;12.32;;;3.45;;
50773;SDS011;36745;48.544;8.918;2023-07-31T17:56:58;5.45;;;3.00;;
50773;SDS011;36745;48.544;8.918;2023-07-31T18:00:19;7.13;;;3.42;;
50773;SDS011;36745;48.544;8.918;2023-07-31T18:03:40;6.18;;;3.30;;
50773;SDS011;36745;48.544;8.918;2023-07-31T18:07:00;13.48;;;3.83;;
50773;SDS011;36745;48.544;8.918;2023-07-31T18:10:20;9.25;;;3.53;;
50773;SDS011;36745;48.544;8.918;2023-07-31T18:13:40;6.07;;;3.10;;
50773;SDS011;36745;48.544;8.918;2023-07-31T18:17:01;7.95;;;3.15;;
50773;SDS011;36745;48.544;8.918;2023-07-31T18:20:22;6.90;;;3.10;;
50773;SDS011;36745;48.544;8.918;2023-07-31T18:23:42;10.82;;;3.90;;
50773;SDS011;36745;48.544;8.918;2023-07-31T18:27:02;7.93;;;4.10;;
50773;SDS011;36745;48.544;8.918;2023-07-31T18:30:21;8.45;;;4.07;;
50773;SDS011;36745;48.544;8.918;2023-07-31T18:33:41;11.18;;;4.18;;
50773;SDS011;36745;48.544;8.918;2023-07-31T18:37:01;9.27;;;3.70;;
50773;SDS011;36745;48.544;8.918;2023-07-31T18:40:23;8.98;;;3.60;;
50773;SDS011;36745;48.544;8.918;2023-07-31T18:43:43;10.02;;;4.13;;
50773;SDS011;36745;48.544;8.918;2023-07-31T18:47:03;9.57;;;4.07;;
50773;SDS011;36745;48.544;8.918;2023-07-31T18:50:22;7.15;;;3.95;;
50773;SDS011;36745;48.544;8.918;2023-07-31T18:53:42;8.35;;;4.32;;
50773;SDS011;36745;48.544;8.918;2023-07-31T18:57:02;9.57;;;4.53;;
50773;SDS011;36745;48.544;8.918;2023-07-31T19:00:22;12.68;;;4.80;;
50773;SDS011;36745;48.544;8.918;2023-07-31T19:03:45;8.63;;;4.33;;
50773;SDS011;36745;48.544;8.918;2023-07-31T19:07:05;8.55;;;4.57;;
50773;SDS011;36745;48.544;8.918;2023-07-31T19:10:25;10.63;;;5.80;;
50773;SDS011;36745;48.544;8.918;2023-07-31T19:13:44;11.27;;;4.60;;
50773;SDS011;36745;48.544;8.918;2023-07-31T19:17:04;9.25;;;4.68;;
50773;SDS011;36745;48.544;8.918;2023-07-31T19:20:24;14.10;;;5.95;;
50773;SDS011;36745;48.544;8.918;2023-07-31T19:23:44;8.60;;;4.50;;
50773;SDS011;36745;48.544;8.918;2023-07-31T19:27:04;12.07;;;5.07;;
50773;SDS011;36745;48.544;8.918;2023-07-31T19:30:25;11.10;;;5.10;;
50773;SDS011;36745;48.544;8.918;2023-07-31T19:33:44;9.93;;;4.63;;
50773;SDS011;36745;48.544;8.918;2023-07-31T19:37:04;8.63;;;4.82;;
50773;SDS011;36745;48.544;8.918;2023-07-31T19:40:24;11.38;;;4.80;;
50773;SDS011;36745;48.544;8.918;2023-07-31T19:43:45;6.53;;;4.30;;
50773;SDS011;36745;48.544;8.918;2023-07-31T19:47:04;9.15;;;4.53;;
50773;SDS011;36745;48.544;8.918;2023-07-31T19:50:24;9.00;;;4.45;;
50773;SDS011;36745;48.544;8.918;2023-07-31T19:53:44;11.15;;;5.53;;
50773;SDS011;36745;48.544;8.918;2023-07-31T19:57:04;9.88;;;4.47;;
50773;SDS011;36745;48.544;8.918;2023-07-31T20:00:35;8.32;;;5.20;;
50773;SDS011;36745;48.544;8.918;2023-07-31T20:03:55;15.07;;;7.13;;
50773;SDS011;36745;48.544;8.918;2023-07-31T20:07:15;25.90;;;16.38;;
50773;SDS011;36745;48.544;8.918;2023-07-31T20:10:34;9.15;;;4.75;;
50773;SDS011;36745;48.544;8.918;2023-07-31T20:13:54;11.48;;;5.32;;
50773;SDS011;36745;48.544;8.918;2023-07-31T20:17:14;12.55;;;6.07;;
50773;SDS011;36745;48.544;8.918;2023-07-31T20:20:34;12.23;;;5.80;;
50773;SDS011;36745;48.544;8.918;2023-07-31T20:23:54;10.93;;;5.55;;